sensor_id;sensor_type;location;lat;lon;timestamp;temperature;humidity
38084;DHT22;23894;51.466;7.444;2022-08-20T02:27:31;20.40;99.90
38084;DHT22;23894;51.466;7.444;2022-08-20T02:29:32;20.10;99.90
38084;DHT22;23894;51.466;7.444;2022-08-20T02:31:33;20.30;99.90
38084;DHT22;23894;51.466;7.444;2022-08-20T02:33:35;20.10;99.90
38084;DHT22;23894;51.466;7.444;2022-08-20T02:35:36;20.10;99.90
38084;DHT22;23894;51.466;7.444;2022-08-20T02:37:39;20.00;99.90
38084;DHT22;23894;51.466;7.444;2022-08-20T02:39:40;20.10;99.90
38084;DHT22;23894;51.466;7.444;2022-08-20T02:41:41;20.30;99.90
38084;DHT22;23894;51.466;7.444;2022-08-20T02:43:41;20.10;99.90
38084;DHT22;23894;51.466;7.444;2022-08-20T02:45:42;20.00;99.90
38084;DHT22;23894;51.466;7.444;2022-08-20T02:47:43;20.20;99.90
38084;DHT22;23894;51.466;7.444;2022-08-20T02:49:44;20.20;99.90
38084;DHT22;23894;51.466;7.444;2022-08-20T02:51:45;20.20;99.90
38084;DHT22;23894;51.466;7.444;2022-08-20T02:53:45;20.10;99.90
38084;DHT22;23894;51.466;7.444;2022-08-20T02:55:46;20.20;99.90
38084;DHT22;23894;51.466;7.444;2022-08-20T02:57:46;20.30;99.90
38084;DHT22;23894;51.466;7.444;2022-08-20T02:59:47;20.10;99.90
38084;DHT22;23894;51.466;7.444;2022-08-20T03:01:47;20.00;99.90
38084;DHT22;23894;51.466;7.444;2022-08-20T03:03:48;20.30;99.90
38084;DHT22;23894;51.466;7.444;2022-08-20T03:05:50;20.40;99.90
38084;DHT22;23894;51.466;7.444;2022-08-20T03:07:51;20.30;99.90
38084;DHT22;23894;51.466;7.444;2022-08-20T03:09:59;20.10;99.90
38084;DHT22;23894;51.466;7.444;2022-08-20T03:11:59;20.10;99.90
38084;DHT22;23894;51.466;7.444;2022-08-20T03:14:00;20.20;99.90
38084;DHT22;23894;51.466;7.444;2022-08-20T03:16:01;20.10;99.90
38084;DHT22;23894;51.466;7.444;2022-08-20T03:18:02;20.10;99.90
38084;DHT22;23894;51.466;7.444;2022-08-20T03:20:06;20.20;99.90
38084;DHT22;23894;51.466;7.444;2022-08-20T03:22:07;20.10;99.90
38084;DHT22;23894;51.466;7.444;2022-08-20T03:24:07;20.00;99.90
38084;DHT22;23894;51.466;7.444;2022-08-20T03:26:09;19.80;99.90
38084;DHT22;23894;51.466;7.444;2022-08-20T03:28:10;20.00;99.90
38084;DHT22;23894;51.466;7.444;2022-08-20T03:30:11;20.20;99.90
38084;DHT22;23894;51.466;7.444;2022-08-20T03:32:12;19.90;99.90
38084;DHT22;23894;51.466;7.444;2022-08-20T03:34:12;20.00;99.90
38084;DHT22;23894;51.466;7.444;2022-08-20T03:36:13;20.00;99.90
38084;DHT22;23894;51.466;7.444;2022-08-20T03:38:14;20.10;99.90
38084;DHT22;23894;51.466;7.444;2022-08-20T03:40:20;20.10;99.90
38084;DHT22;23894;51.466;7.444;2022-08-20T03:42:21;19.90;99.90
38084;DHT22;23894;51.466;7.444;2022-08-20T03:44:21;19.80;99.90
38084;DHT22;23894;51.466;7.444;2022-08-20T03:46:22;20.10;99.90
38084;DHT22;23894;51.466;7.444;2022-08-20T03:48:23;19.80;99.90
38084;DHT22;23894;51.466;7.444;2022-08-20T03:50:25;20.10;99.90
38084;DHT22;23894;51.466;7.444;2022-08-20T03:52:27;19.80;99.90
38084;DHT22;23894;51.466;7.444;2022-08-20T03:54:28;19.90;99.90
38084;DHT22;23894;51.466;7.444;2022-08-20T03:56:29;19.70;99.90
38084;DHT22;23894;51.466;7.444;2022-08-20T03:58:30;19.70;99.90
38084;DHT22;23894;51.466;7.444;2022-08-20T04:00:38;19.90;99.90
38084;DHT22;23894;51.466;7.444;2022-08-20T04:02:39;19.60;99.90
38084;DHT22;23894;51.466;7.444;2022-08-20T04:04:40;19.80;99.90
38084;DHT22;23894;51.466;7.444;2022-08-20T04:06:41;19.70;99.90
38084;DHT22;23894;51.466;7.444;2022-08-20T04:08:41;19.80;99.90
38084;DHT22;23894;51.466;7.444;2022-08-20T04:10:42;19.60;99.90
38084;DHT22;23894;51.466;7.444;2022-08-20T04:12:43;19.70;99.90
38084;DHT22;23894;51.466;7.444;2022-08-20T04:14:44;19.60;99.90
38084;DHT22;23894;51.466;7.444;2022-08-20T04:16:44;19.80;99.90
38084;DHT22;23894;51.466;7.444;2022-08-20T04:18:45;19.60;99.90
38084;DHT22;23894;51.466;7.444;2022-08-20T04:20:47;19.60;99.90
38084;DHT22;23894;51.466;7.444;2022-08-20T04:22:51;19.60;99.90
38084;DHT22;23894;51.466;7.444;2022-08-20T04:24:53;19.40;99.90
38084;DHT22;23894;51.466;7.444;2022-08-20T04:26:53;19.50;99.90
38084;DHT22;23894;51.466;7.444;2022-08-20T04:28:55;19.40;99.90
38084;DHT22;23894;51.466;7.444;2022-08-20T04:30:57;19.40;99.90
38084;DHT22;23894;51.466;7.444;2022-08-20T04:32:58;19.40;99.90
38084;DHT22;23894;51.466;7.444;2022-08-20T04:34:58;19.50;99.90
38084;DHT22;23894;51.466;7.444;2022-08-20T04:37:00;19.30;99.90
38084;DHT22;23894;51.466;7.444;2022-08-20T04:39:00;19.40;99.90
38084;DHT22;23894;51.466;7.444;2022-08-20T04:41:00;19.50;99.90
38084;DHT22;23894;51.466;7.444;2022-08-20T04:43:01;19.40;99.90
38084;DHT22;23894;51.466;7.444;2022-08-20T04:45:04;19.40;99.90
38084;DHT22;23894;51.466;7.444;2022-08-20T04:47:05;19.50;99.90
38084;DHT22;23894;51.466;7.444;2022-08-20T04:49:06;19.30;99.90
38084;DHT22;23894;51.466;7.444;2022-08-20T04:51:07;19.30;99.90
38084;DHT22;23894;51.466;7.444;2022-08-20T04:53:09;19.50;99.90
38084;DHT22;23894;51.466;7.444;2022-08-20T04:55:09;19.60;99.90
38084;DHT22;23894;51.466;7.444;2022-08-20T04:57:10;19.30;99.90
38084;DHT22;23894;51.466;7.444;2022-08-20T04:59:10;19.60;99.90
38084;DHT22;23894;51.466;7.444;2022-08-20T05:01:11;19.60;99.90
38084;DHT22;23894;51.466;7.444;2022-08-20T05:03:11;19.60;99.90
38084;DHT22;23894;51.466;7.444;2022-08-20T05:05:12;19.40;99.90
38084;DHT22;23894;51.466;7.444;2022-08-20T05:07:13;19.50;99.90
38084;DHT22;23894;51.466;7.444;2022-08-20T05:09:14;19.60;99.90
38084;DHT22;23894;51.466;7.444;2022-08-20T05:11:15;19.70;99.90
38084;DHT22;23894;51.466;7.444;2022-08-20T05:13:15;19.70;99.90
38084;DHT22;23894;51.466;7.444;2022-08-20T05:15:16;19.70;99.90
38084;DHT22;23894;51.466;7.444;2022-08-20T05:17:17;19.70;99.90
38084;DHT22;23894;51.466;7.444;2022-08-20T05:19:17;19.80;99.90
38084;DHT22;23894;51.466;7.444;2022-08-20T05:21:18;19.80;99.90
38084;DHT22;23894;51.466;7.444;2022-08-20T05:23:19;19.70;99.90
38084;DHT22;23894;51.466;7.444;2022-08-20T05:25:20;19.90;99.90
38084;DHT22;23894;51.466;7.444;2022-08-20T05:27:21;19.70;99.90
38084;DHT22;23894;51.466;7.444;2022-08-20T05:29:24;19.90;99.90
38084;DHT22;23894;51.466;7.444;2022-08-20T05:31:27;19.90;99.90
38084;DHT22;23894;51.466;7.444;2022-08-20T05:33:28;19.80;99.90
38084;DHT22;23894;51.466;7.444;2022-08-20T05:35:29;20.10;99.90
38084;DHT22;23894;51.466;7.444;2022-08-20T05:37:34;20.10;99.90
38084;DHT22;23894;51.466;7.444;2022-08-20T05:39:35;20.10;99.90
38084;DHT22;23894;51.466;7.444;2022-08-20T05:41:35;20.10;99.90
38084;DHT22;23894;51.466;7.444;2022-08-20T05:43:37;20.30;99.90
38084;DHT22;23894;51.466;7.444;2022-08-20T05:45:39;20.10;99.90
38084;DHT22;23894;51.466;7.444;2022-08-20T05:47:39;20.10;99.90
38084;DHT22;23894;51.466;7.444;2022-08-20T05:49:40;20.30;99.90
38084;DHT22;23894;51.466;7.444;2022-08-20T05:51:42;20.20;99.90
38084;DHT22;23894;51.466;7.444;2022-08-20T05:53:44;20.20;99.90
38084;DHT22;23894;51.466;7.444;2022-08-20T05:55:45;20.10;99.90
38084;DHT22;23894;51.466;7.444;2022-08-20T05:57:48;20.10;99.90
38084;DHT22;23894;51.466;7.444;2022-08-20T05:59:51;20.10;99.90
38084;DHT22;23894;51.466;7.444;2022-08-20T06:01:53;19.90;99.90
38084;DHT22;23894;51.466;7.444;2022-08-20T06:03:55;20.00;99.90
38084;DHT22;23894;51.466;7.444;2022-08-20T06:06:16;19.90;99.90
38084;DHT22;23894;51.466;7.444;2022-08-20T06:08:17;19.80;99.90
38084;DHT22;23894;51.466;7.444;2022-08-20T06:10:19;19.80;99.90
38084;DHT22;23894;51.466;7.444;2022-08-20T06:12:20;19.80;99.90
38084;DHT22;23894;51.466;7.444;2022-08-20T06:14:22;19.90;99.90
38084;DHT22;23894;51.466;7.444;2022-08-20T06:16:23;19.90;99.90
38084;DHT22;23894;51.466;7.444;2022-08-20T06:18:23;20.00;99.90
38084;DHT22;23894;51.466;7.444;2022-08-20T06:20:24;19.90;99.90
38084;DHT22;23894;51.466;7.444;2022-08-20T06:22:25;19.90;99.90
38084;DHT22;23894;51.466;7.444;2022-08-20T06:24:25;20.00;99.90
38084;DHT22;23894;51.466;7.444;2022-08-20T06:26:26;19.80;99.90
38084;DHT22;23894;51.466;7.444;2022-08-20T06:28:27;19.70;99.90
38084;DHT22;23894;51.466;7.444;2022-08-20T06:30:28;19.80;99.90
38084;DHT22;23894;51.466;7.444;2022-08-20T06:32:28;19.70;99.90
38084;DHT22;23894;51.466;7.444;2022-08-20T06:34:29;19.80;99.90
38084;DHT22;23894;51.466;7.444;2022-08-20T06:36:29;19.70;99.90
38084;DHT22;23894;51.466;7.444;2022-08-20T06:38:30;19.60;99.90
38084;DHT22;23894;51.466;7.444;2022-08-20T06:40:32;19.70;99.90
38084;DHT22;23894;51.466;7.444;2022-08-20T06:42:34;19.60;99.90
38084;DHT22;23894;51.466;7.444;2022-08-20T06:44:34;19.60;99.90
38084;DHT22;23894;51.466;7.444;2022-08-20T06:46:37;19.60;99.90
38084;DHT22;23894;51.466;7.444;2022-08-20T06:48:37;19.70;99.90
38084;DHT22;23894;51.466;7.444;2022-08-20T06:50:39;19.70;99.90
38084;DHT22;23894;51.466;7.444;2022-08-20T06:52:41;19.60;99.90
38084;DHT22;23894;51.466;7.444;2022-08-20T06:54:42;19.80;99.90
38084;DHT22;23894;51.466;7.444;2022-08-20T06:56:43;19.80;99.90
38084;DHT22;23894;51.466;7.444;2022-08-20T06:58:43;19.90;99.90
38084;DHT22;23894;51.466;7.444;2022-08-20T07:00:44;19.90;99.90
38084;DHT22;23894;51.466;7.444;2022-08-20T07:02:45;19.80;99.90
38084;DHT22;23894;51.466;7.444;2022-08-20T07:04:47;19.80;99.90
38084;DHT22;23894;51.466;7.444;2022-08-20T07:06:47;19.80;99.90
38084;DHT22;23894;51.466;7.444;2022-08-20T07:08:51;19.90;99.90
38084;DHT22;23894;51.466;7.444;2022-08-20T07:10:51;20.00;99.90
38084;DHT22;23894;51.466;7.444;2022-08-20T07:12:52;20.00;99.90
38084;DHT22;23894;51.466;7.444;2022-08-20T07:14:52;20.00;99.90
38084;DHT22;23894;51.466;7.444;2022-08-20T07:16:53;20.00;99.90
38084;DHT22;23894;51.466;7.444;2022-08-20T07:18:54;19.90;99.90
38084;DHT22;23894;51.466;7.444;2022-08-20T07:20:55;20.00;99.90
38084;DHT22;23894;51.466;7.444;2022-08-20T07:22:56;20.10;99.90
38084;DHT22;23894;51.466;7.444;2022-08-20T07:24:57;20.10;99.90
38084;DHT22;23894;51.466;7.444;2022-08-20T07:26:58;20.00;99.90
38084;DHT22;23894;51.466;7.444;2022-08-20T07:28:58;20.00;99.90
38084;DHT22;23894;51.466;7.444;2022-08-20T07:30:59;20.00;99.90
38084;DHT22;23894;51.466;7.444;2022-08-20T07:33:18;20.00;99.90
38084;DHT22;23894;51.466;7.444;2022-08-20T07:35:18;20.00;99.90
38084;DHT22;23894;51.466;7.444;2022-08-20T07:37:19;20.00;99.90
38084;DHT22;23894;51.466;7.444;2022-08-20T07:39:20;20.00;99.90
38084;DHT22;23894;51.466;7.444;2022-08-20T07:41:20;20.10;99.90
38084;DHT22;23894;51.466;7.444;2022-08-20T07:43:21;20.10;99.90
38084;DHT22;23894;51.466;7.444;2022-08-20T07:45:25;20.20;99.90
38084;DHT22;23894;51.466;7.444;2022-08-20T07:47:25;20.20;99.90
38084;DHT22;23894;51.466;7.444;2022-08-20T07:49:26;20.30;99.90
38084;DHT22;23894;51.466;7.444;2022-08-20T07:51:27;20.40;99.90
38084;DHT22;23894;51.466;7.444;2022-08-20T07:53:28;20.50;99.90
38084;DHT22;23894;51.466;7.444;2022-08-20T07:55:29;20.40;99.90
38084;DHT22;23894;51.466;7.444;2022-08-20T07:57:29;20.30;99.90
38084;DHT22;23894;51.466;7.444;2022-08-20T07:59:31;20.40;99.90
38084;DHT22;23894;51.466;7.444;2022-08-20T08:01:31;20.30;99.90
38084;DHT22;23894;51.466;7.444;2022-08-20T08:03:32;20.40;99.90
38084;DHT22;23894;51.466;7.444;2022-08-20T08:05:35;20.40;99.90
38084;DHT22;23894;51.466;7.444;2022-08-20T08:07:38;20.40;99.90
38084;DHT22;23894;51.466;7.444;2022-08-20T08:09:39;20.40;99.90
38084;DHT22;23894;51.466;7.444;2022-08-20T08:11:40;20.40;99.90
38084;DHT22;23894;51.466;7.444;2022-08-20T08:13:42;20.40;99.90
38084;DHT22;23894;51.466;7.444;2022-08-20T08:15:46;20.40;99.90
38084;DHT22;23894;51.466;7.444;2022-08-20T08:17:48;20.40;99.90
38084;DHT22;23894;51.466;7.444;2022-08-20T08:19:51;20.40;99.90
38084;DHT22;23894;51.466;7.444;2022-08-20T08:21:52;20.40;99.90
38084;DHT22;23894;51.466;7.444;2022-08-20T08:23:53;20.40;99.90
38084;DHT22;23894;51.466;7.444;2022-08-20T08:25:53;20.40;99.90
38084;DHT22;23894;51.466;7.444;2022-08-20T08:27:54;20.30;99.90
38084;DHT22;23894;51.466;7.444;2022-08-20T08:29:54;20.30;99.90
38084;DHT22;23894;51.466;7.444;2022-08-20T08:31:55;20.30;99.90
38084;DHT22;23894;51.466;7.444;2022-08-20T08:33:56;20.30;99.90
38084;DHT22;23894;51.466;7.444;2022-08-20T08:36:02;20.40;99.90
38084;DHT22;23894;51.466;7.444;2022-08-20T08:38:03;20.50;99.90
38084;DHT22;23894;51.466;7.444;2022-08-20T08:40:04;20.50;99.90
38084;DHT22;23894;51.466;7.444;2022-08-20T08:44:24;20.30;99.90
38084;DHT22;23894;51.466;7.444;2022-08-20T08:46:27;20.20;99.90
38084;DHT22;23894;51.466;7.444;2022-08-20T08:48:43;20.20;99.90
38084;DHT22;23894;51.466;7.444;2022-08-20T08:50:48;20.20;99.90
38084;DHT22;23894;51.466;7.444;2022-08-20T08:52:56;20.20;99.90
38084;DHT22;23894;51.466;7.444;2022-08-20T08:55:03;20.30;99.90
38084;DHT22;23894;51.466;7.444;2022-08-20T08:57:04;20.40;99.90
38084;DHT22;23894;51.466;7.444;2022-08-20T08:59:07;20.50;99.90
38084;DHT22;23894;51.466;7.444;2022-08-20T09:01:20;20.50;99.90
38084;DHT22;23894;51.466;7.444;2022-08-20T09:03:26;20.70;99.90
38084;DHT22;23894;51.466;7.444;2022-08-20T09:05:35;20.60;99.90
38084;DHT22;23894;51.466;7.444;2022-08-20T09:07:37;20.70;99.90
38084;DHT22;23894;51.466;7.444;2022-08-20T09:09:38;20.70;99.90
38084;DHT22;23894;51.466;7.444;2022-08-20T09:11:47;20.70;99.90
38084;DHT22;23894;51.466;7.444;2022-08-20T09:13:48;20.80;99.90
38084;DHT22;23894;51.466;7.444;2022-08-20T09:15:49;20.80;99.90
38084;DHT22;23894;51.466;7.444;2022-08-20T09:17:49;20.70;99.90
38084;DHT22;23894;51.466;7.444;2022-08-20T09:19:50;20.60;99.90
38084;DHT22;23894;51.466;7.444;2022-08-20T09:21:51;20.50;99.90
38084;DHT22;23894;51.466;7.444;2022-08-20T09:23:52;20.40;99.90
38084;DHT22;23894;51.466;7.444;2022-08-20T09:25:52;20.40;99.90
38084;DHT22;23894;51.466;7.444;2022-08-20T09:27:53;20.30;99.90
38084;DHT22;23894;51.466;7.444;2022-08-20T09:29:53;20.30;99.90
38084;DHT22;23894;51.466;7.444;2022-08-20T09:32:12;20.40;99.90
38084;DHT22;23894;51.466;7.444;2022-08-20T09:34:13;20.40;99.90
38084;DHT22;23894;51.466;7.444;2022-08-20T09:36:13;20.40;99.90
38084;DHT22;23894;51.466;7.444;2022-08-20T09:38:14;20.60;99.90
38084;DHT22;23894;51.466;7.444;2022-08-20T09:42:23;20.90;99.90
38084;DHT22;23894;51.466;7.444;2022-08-20T09:44:24;21.10;99.90
38084;DHT22;23894;51.466;7.444;2022-08-20T09:46:24;21.20;99.90
38084;DHT22;23894;51.466;7.444;2022-08-20T09:48:26;21.20;99.90
38084;DHT22;23894;51.466;7.444;2022-08-20T09:50:28;21.30;99.90
38084;DHT22;23894;51.466;7.444;2022-08-20T09:52:36;21.40;99.90
38084;DHT22;23894;51.466;7.444;2022-08-20T09:54:38;21.40;99.90
38084;DHT22;23894;51.466;7.444;2022-08-20T09:56:39;21.40;99.90
38084;DHT22;23894;51.466;7.444;2022-08-20T09:58:51;21.40;99.90
38084;DHT22;23894;51.466;7.444;2022-08-20T10:00:52;21.40;99.90
38084;DHT22;23894;51.466;7.444;2022-08-20T10:02:53;21.30;99.90
38084;DHT22;23894;51.466;7.444;2022-08-20T10:04:53;21.30;99.90
38084;DHT22;23894;51.466;7.444;2022-08-20T10:06:55;21.30;99.90
38084;DHT22;23894;51.466;7.444;2022-08-20T10:08:56;21.10;99.90
38084;DHT22;23894;51.466;7.444;2022-08-20T10:10:56;21.10;99.90
38084;DHT22;23894;51.466;7.444;2022-08-20T10:12:57;20.90;99.90
38084;DHT22;23894;51.466;7.444;2022-08-20T10:14:57;21.00;99.90
38084;DHT22;23894;51.466;7.444;2022-08-20T10:17:00;21.10;99.90
38084;DHT22;23894;51.466;7.444;2022-08-20T10:19:02;21.10;99.90
38084;DHT22;23894;51.466;7.444;2022-08-20T10:21:08;21.10;99.90
38084;DHT22;23894;51.466;7.444;2022-08-20T10:23:09;21.10;99.90
38084;DHT22;23894;51.466;7.444;2022-08-20T10:25:11;20.90;99.90
38084;DHT22;23894;51.466;7.444;2022-08-20T10:27:11;20.90;99.90
38084;DHT22;23894;51.466;7.444;2022-08-20T10:29:12;20.80;99.90
38084;DHT22;23894;51.466;7.444;2022-08-20T10:31:13;20.90;99.90
38084;DHT22;23894;51.466;7.444;2022-08-20T10:33:13;21.00;99.90
38084;DHT22;23894;51.466;7.444;2022-08-20T10:35:14;20.90;99.90
38084;DHT22;23894;51.466;7.444;2022-08-20T10:37:18;20.70;99.90
38084;DHT22;23894;51.466;7.444;2022-08-20T10:39:19;20.70;99.90
38084;DHT22;23894;51.466;7.444;2022-08-20T10:41:20;20.60;99.90
38084;DHT22;23894;51.466;7.444;2022-08-20T10:43:21;20.70;99.90
38084;DHT22;23894;51.466;7.444;2022-08-20T10:45:22;20.60;99.90
38084;DHT22;23894;51.466;7.444;2022-08-20T10:47:27;20.60;99.90
38084;DHT22;23894;51.466;7.444;2022-08-20T10:49:32;20.70;99.90
38084;DHT22;23894;51.466;7.444;2022-08-20T10:51:33;20.80;99.90
38084;DHT22;23894;51.466;7.444;2022-08-20T10:53:34;20.90;99.90
38084;DHT22;23894;51.466;7.444;2022-08-20T10:55:35;21.00;99.90
38084;DHT22;23894;51.466;7.444;2022-08-20T10:57:37;21.10;99.90
38084;DHT22;23894;51.466;7.444;2022-08-20T10:59:40;21.30;99.90
38084;DHT22;23894;51.466;7.444;2022-08-20T11:01:41;21.30;99.90
38084;DHT22;23894;51.466;7.444;2022-08-20T11:03:43;21.30;99.90
38084;DHT22;23894;51.466;7.444;2022-08-20T11:05:44;21.40;99.90
38084;DHT22;23894;51.466;7.444;2022-08-20T11:07:46;21.50;99.90
38084;DHT22;23894;51.466;7.444;2022-08-20T11:09:48;21.70;99.90
38084;DHT22;23894;51.466;7.444;2022-08-20T11:11:50;21.80;99.90
38084;DHT22;23894;51.466;7.444;2022-08-20T11:13:51;21.90;99.90
38084;DHT22;23894;51.466;7.444;2022-08-20T11:15:51;22.00;99.90
38084;DHT22;23894;51.466;7.444;2022-08-20T11:17:52;22.00;99.90
38084;DHT22;23894;51.466;7.444;2022-08-20T11:19:53;22.00;99.90
38084;DHT22;23894;51.466;7.444;2022-08-20T11:21:54;22.00;99.90
38084;DHT22;23894;51.466;7.444;2022-08-20T11:23:54;22.00;99.90
38084;DHT22;23894;51.466;7.444;2022-08-20T11:25:55;22.20;99.90
38084;DHT22;23894;51.466;7.444;2022-08-20T11:27:56;22.10;99.90
38084;DHT22;23894;51.466;7.444;2022-08-20T11:29:57;22.20;99.90
38084;DHT22;23894;51.466;7.444;2022-08-20T11:31:58;22.40;99.90
38084;DHT22;23894;51.466;7.444;2022-08-20T11:33:58;22.40;99.90
38084;DHT22;23894;51.466;7.444;2022-08-20T11:35:59;22.20;99.90
38084;DHT22;23894;51.466;7.444;2022-08-20T11:38:01;22.40;99.90
38084;DHT22;23894;51.466;7.444;2022-08-20T11:40:02;22.80;99.90
38084;DHT22;23894;51.466;7.444;2022-08-20T11:42:04;22.80;99.90
38084;DHT22;23894;51.466;7.444;2022-08-20T11:58:17;25.60;99.90
38084;DHT22;23894;51.466;7.444;2022-08-20T12:00:21;26.00;99.90
38084;DHT22;23894;51.466;7.444;2022-08-20T12:02:24;26.70;99.90
38084;DHT22;23894;51.466;7.444;2022-08-20T12:04:24;27.40;99.90
38084;DHT22;23894;51.466;7.444;2022-08-20T12:06:27;28.20;99.90
38084;DHT22;23894;51.466;7.444;2022-08-20T12:08:28;28.60;99.90
38084;DHT22;23894;51.466;7.444;2022-08-20T12:10:29;28.90;99.90
38084;DHT22;23894;51.466;7.444;2022-08-20T12:12:30;29.20;99.90
38084;DHT22;23894;51.466;7.444;2022-08-20T12:14:30;29.90;99.90
38084;DHT22;23894;51.466;7.444;2022-08-20T12:16:31;30.60;99.90
38084;DHT22;23894;51.466;7.444;2022-08-20T12:18:32;31.10;99.90
38084;DHT22;23894;51.466;7.444;2022-08-20T12:20:33;31.20;99.90
38084;DHT22;23894;51.466;7.444;2022-08-20T12:22:34;31.20;99.90
38084;DHT22;23894;51.466;7.444;2022-08-20T12:24:35;31.40;99.90
38084;DHT22;23894;51.466;7.444;2022-08-20T12:26:35;31.70;99.90
38084;DHT22;23894;51.466;7.444;2022-08-20T12:28:36;31.90;99.90
38084;DHT22;23894;51.466;7.444;2022-08-20T12:30:36;31.90;99.90
38084;DHT22;23894;51.466;7.444;2022-08-20T12:32:37;32.20;99.90
38084;DHT22;23894;51.466;7.444;2022-08-20T12:34:39;32.90;99.90
38084;DHT22;23894;51.466;7.444;2022-08-20T12:36:40;33.80;99.90
38084;DHT22;23894;51.466;7.444;2022-08-20T12:38:41;34.40;99.90
38084;DHT22;23894;51.466;7.444;2022-08-20T12:40:41;35.30;99.90
38084;DHT22;23894;51.466;7.444;2022-08-20T12:42:42;36.10;99.90
38084;DHT22;23894;51.466;7.444;2022-08-20T12:44:43;36.50;99.90
38084;DHT22;23894;51.466;7.444;2022-08-20T12:46:43;36.50;99.90
38084;DHT22;23894;51.466;7.444;2022-08-20T12:48:44;36.80;99.90
38084;DHT22;23894;51.466;7.444;2022-08-20T12:50:44;37.50;99.90
38084;DHT22;23894;51.466;7.444;2022-08-20T12:52:45;38.20;99.90
38084;DHT22;23894;51.466;7.444;2022-08-20T12:54:47;38.80;99.90
38084;DHT22;23894;51.466;7.444;2022-08-20T12:56:48;39.10;99.90
38084;DHT22;23894;51.466;7.444;2022-08-20T12:58:48;39.20;99.90
38084;DHT22;23894;51.466;7.444;2022-08-20T13:00:49;39.30;99.90
38084;DHT22;23894;51.466;7.444;2022-08-20T13:02:51;39.50;99.90
38084;DHT22;23894;51.466;7.444;2022-08-20T13:04:52;39.30;99.90
38084;DHT22;23894;51.466;7.444;2022-08-20T13:06:52;38.50;99.90
38084;DHT22;23894;51.466;7.444;2022-08-20T13:08:59;38.50;99.90
38084;DHT22;23894;51.466;7.444;2022-08-20T13:10:59;37.90;99.90
38084;DHT22;23894;51.466;7.444;2022-08-20T13:13:00;37.00;99.90
38084;DHT22;23894;51.466;7.444;2022-08-20T13:15:03;36.00;99.90
38084;DHT22;23894;51.466;7.444;2022-08-20T13:17:04;35.20;99.90
38084;DHT22;23894;51.466;7.444;2022-08-20T13:19:05;34.40;99.90
38084;DHT22;23894;51.466;7.444;2022-08-20T13:21:05;33.80;99.90
38084;DHT22;23894;51.466;7.444;2022-08-20T13:23:06;33.20;99.90
38084;DHT22;23894;51.466;7.444;2022-08-20T13:25:08;32.70;99.90
38084;DHT22;23894;51.466;7.444;2022-08-20T13:27:14;32.30;99.90
38084;DHT22;23894;51.466;7.444;2022-08-20T13:29:17;31.90;99.90
38084;DHT22;23894;51.466;7.444;2022-08-20T13:31:17;31.60;99.90
38084;DHT22;23894;51.466;7.444;2022-08-20T13:33:18;31.20;99.90
38084;DHT22;23894;51.466;7.444;2022-08-20T13:35:19;31.00;99.90
38084;DHT22;23894;51.466;7.444;2022-08-20T13:37:23;30.70;99.90
38084;DHT22;23894;51.466;7.444;2022-08-20T13:39:24;30.50;99.90
38084;DHT22;23894;51.466;7.444;2022-08-20T13:41:25;30.20;99.90
38084;DHT22;23894;51.466;7.444;2022-08-20T13:43:26;29.90;99.90
38084;DHT22;23894;51.466;7.444;2022-08-20T13:45:26;29.70;99.90
38084;DHT22;23894;51.466;7.444;2022-08-20T13:47:30;29.50;99.90
38084;DHT22;23894;51.466;7.444;2022-08-20T13:49:33;29.30;99.90
38084;DHT22;23894;51.466;7.444;2022-08-20T13:51:33;29.10;99.90
38084;DHT22;23894;51.466;7.444;2022-08-20T13:53:34;29.00;99.90
38084;DHT22;23894;51.466;7.444;2022-08-20T13:55:34;28.90;99.90
38084;DHT22;23894;51.466;7.444;2022-08-20T13:57:35;28.80;99.90
38084;DHT22;23894;51.466;7.444;2022-08-20T13:59:41;28.80;99.90
38084;DHT22;23894;51.466;7.444;2022-08-20T14:01:42;28.70;99.90
38084;DHT22;23894;51.466;7.444;2022-08-20T14:03:42;28.60;99.90
38084;DHT22;23894;51.466;7.444;2022-08-20T14:05:43;28.60;99.90
38084;DHT22;23894;51.466;7.444;2022-08-20T14:07:45;28.50;99.90
38084;DHT22;23894;51.466;7.444;2022-08-20T14:09:51;28.50;99.90
38084;DHT22;23894;51.466;7.444;2022-08-20T14:11:53;28.50;99.90
38084;DHT22;23894;51.466;7.444;2022-08-20T14:13:53;28.40;99.90
38084;DHT22;23894;51.466;7.444;2022-08-20T14:15:54;28.30;99.90
38084;DHT22;23894;51.466;7.444;2022-08-20T14:17:56;28.30;99.90
38084;DHT22;23894;51.466;7.444;2022-08-20T14:19:59;28.20;99.90
38084;DHT22;23894;51.466;7.444;2022-08-20T14:22:00;28.10;99.90
38084;DHT22;23894;51.466;7.444;2022-08-20T14:24:00;27.90;99.90
38084;DHT22;23894;51.466;7.444;2022-08-20T14:26:02;27.80;99.90
38084;DHT22;23894;51.466;7.444;2022-08-20T14:28:15;27.60;99.90
38084;DHT22;23894;51.466;7.444;2022-08-20T14:30:21;27.50;99.90
38084;DHT22;23894;51.466;7.444;2022-08-20T14:32:22;27.30;99.90
38084;DHT22;23894;51.466;7.444;2022-08-20T14:34:22;27.30;99.90
38084;DHT22;23894;51.466;7.444;2022-08-20T14:36:23;27.10;99.90
38084;DHT22;23894;51.466;7.444;2022-08-20T14:38:23;27.00;99.90
38084;DHT22;23894;51.466;7.444;2022-08-20T14:40:25;26.90;99.90
38084;DHT22;23894;51.466;7.444;2022-08-20T14:42:28;26.80;99.90
38084;DHT22;23894;51.466;7.444;2022-08-20T14:44:29;26.80;99.90
38084;DHT22;23894;51.466;7.444;2022-08-20T14:46:29;26.70;99.90
38084;DHT22;23894;51.466;7.444;2022-08-20T14:48:30;26.70;99.90
38084;DHT22;23894;51.466;7.444;2022-08-20T14:50:32;26.70;99.90
38084;DHT22;23894;51.466;7.444;2022-08-20T14:52:33;26.60;99.90
38084;DHT22;23894;51.466;7.444;2022-08-20T14:54:36;26.60;99.90
38084;DHT22;23894;51.466;7.444;2022-08-20T14:56:36;26.70;99.90
38084;DHT22;23894;51.466;7.444;2022-08-20T14:58:37;26.70;99.90
38084;DHT22;23894;51.466;7.444;2022-08-20T15:00:38;26.80;99.90
38084;DHT22;23894;51.466;7.444;2022-08-20T15:02:40;26.80;99.90
38084;DHT22;23894;51.466;7.444;2022-08-20T15:04:41;26.80;99.90
38084;DHT22;23894;51.466;7.444;2022-08-20T15:06:41;26.80;99.90
38084;DHT22;23894;51.466;7.444;2022-08-20T15:08:42;26.80;99.90
38084;DHT22;23894;51.466;7.444;2022-08-20T15:10:43;26.80;99.90
38084;DHT22;23894;51.466;7.444;2022-08-20T15:12:43;26.70;99.90
38084;DHT22;23894;51.466;7.444;2022-08-20T15:14:44;26.60;99.90
38084;DHT22;23894;51.466;7.444;2022-08-20T15:16:45;26.60;99.90
38084;DHT22;23894;51.466;7.444;2022-08-20T15:18:45;26.50;99.90
38084;DHT22;23894;51.466;7.444;2022-08-20T15:20:46;26.50;99.90
38084;DHT22;23894;51.466;7.444;2022-08-20T15:22:47;26.60;99.90
38084;DHT22;23894;51.466;7.444;2022-08-20T15:24:49;26.50;99.90
38084;DHT22;23894;51.466;7.444;2022-08-20T15:26:49;26.60;99.90
38084;DHT22;23894;51.466;7.444;2022-08-20T15:28:50;26.60;99.90
38084;DHT22;23894;51.466;7.444;2022-08-20T15:30:50;26.60;99.90
38084;DHT22;23894;51.466;7.444;2022-08-20T15:32:51;26.50;99.90